Sonora, Ohio
Current Conditions -  °F | °C
As of 11:53 AM on Sunday 23 Nov 2014 (Local Time) from KZZV Reporting Station
Scattered Clouds Scattered Clouds  
Wind Chill: 59°   Ceiling: Unl
Heat Index: 59°   Visibility: 10mi
Dew Point: 35°   Wind: 9mph
Humidity: 41%   Direction: 180°S
Pressure: 29.95"   Gusts: NA
Location:  39.9489°N, 82.0572°W
Report Text: KZZV 231653Z AUTO 18008KT 10SM SCT120 15/02 A2995 RMK AO2 SLP144 T01500017
Loading
Personal Weather Stations






























Interactive Weather Map New forecast layout! Learn more

10-Day Weather Forecast

Advertisements
Track Severe Weather on mobile